createdAt,value
2022-08-21T00:01:25.123Z,3.45
2022-08-21T00:04:09.379Z,4.72
2022-08-21T00:06:53.792Z,3.88
2022-08-21T00:09:38.565Z,3.58
2022-08-21T00:15:06.559Z,3.53
2022-08-21T00:17:51.690Z,4.18
2022-08-21T00:20:35.347Z,3.20
2022-08-21T00:23:18.943Z,4.35
2022-08-21T00:26:03.445Z,4.32
2022-08-21T00:28:47.060Z,3.83
2022-08-21T00:31:30.252Z,3.35
2022-08-21T00:34:15.322Z,3.97
2022-08-21T00:36:58.390Z,4.35
2022-08-21T00:39:41.422Z,2.90
2022-08-21T00:42:25.886Z,3.10
2022-08-21T00:45:10.142Z,4.30
2022-08-21T00:47:54.958Z,4.97
2022-08-21T00:50:42.222Z,4.15
2022-08-21T00:53:25.822Z,3.65
2022-08-21T00:56:12.451Z,2.50
2022-08-21T00:58:59.659Z,3.78
2022-08-21T01:01:42.735Z,2.92
2022-08-21T01:04:26.221Z,2.92
2022-08-21T01:07:09.427Z,3.33
2022-08-21T01:09:52.573Z,5.15
2022-08-21T01:12:36.456Z,3.65
2022-08-21T01:15:23.680Z,4.60
2022-08-21T01:18:09.899Z,4.57
2022-08-21T01:21:03.597Z,3.53
2022-08-21T01:23:51.008Z,3.65
2022-08-21T01:26:36.596Z,3.72
2022-08-21T01:29:29.849Z,3.65
2022-08-21T01:32:17.131Z,3.45
2022-08-21T01:35:00.215Z,2.88
2022-08-21T01:37:44.755Z,3.58
2022-08-21T01:40:28.017Z,4.50
2022-08-21T01:43:11.022Z,3.95
2022-08-21T01:45:54.079Z,4.93
2022-08-21T01:48:38.628Z,4.85
2022-08-21T01:51:21.939Z,5.03
2022-08-21T01:54:06.530Z,4.70
2022-08-21T01:56:53.880Z,5.65
2022-08-21T01:59:36.994Z,3.53
2022-08-21T02:02:20.075Z,3.80
2022-08-21T02:05:03.127Z,4.70
2022-08-21T02:07:50.408Z,4.75
2022-08-21T02:10:35.508Z,4.95
2022-08-21T02:13:19.131Z,6.43
2022-08-21T02:16:02.233Z,7.93
2022-08-21T02:18:45.459Z,7.68
2022-08-21T02:21:28.534Z,7.25
2022-08-21T02:24:12.649Z,9.38
2022-08-21T02:26:57.061Z,8.70
2022-08-21T02:29:40.063Z,9.40
2022-08-21T02:32:25.188Z,9.05
2022-08-21T02:35:10.206Z,9.57
2022-08-21T02:37:55.492Z,9.63
2022-08-21T02:40:43.734Z,10.48
2022-08-21T02:43:32.602Z,8.65
2022-08-21T02:46:18.388Z,12.88
2022-08-21T02:49:01.374Z,12.38
2022-08-21T02:51:44.401Z,11.73
2022-08-21T02:54:27.429Z,9.93
2022-08-21T02:57:10.476Z,11.15
2022-08-21T02:59:54.902Z,10.20
2022-08-21T03:02:37.940Z,8.68
2022-08-21T03:05:21.609Z,7.88
2022-08-21T03:08:07.997Z,7.93
2022-08-21T03:10:53.034Z,7.68
2022-08-21T03:13:36.107Z,9.82
2022-08-21T03:16:21.705Z,8.20
2022-08-21T03:19:04.903Z,10.15
2022-08-21T03:21:47.994Z,11.32
2022-08-21T03:24:30.989Z,9.80
2022-08-21T03:27:16.557Z,8.82
2022-08-21T03:29:59.851Z,7.38
2022-08-21T03:32:44.281Z,9.07
2022-08-21T03:35:28.547Z,8.07
2022-08-21T03:38:13.667Z,9.82
2022-08-21T03:40:56.722Z,6.80
2022-08-21T03:43:39.835Z,7.68
2022-08-21T03:46:22.883Z,7.50
2022-08-21T03:49:07.358Z,7.97
2022-08-21T03:51:50.393Z,7.38
2022-08-21T03:54:42.726Z,7.68
2022-08-21T03:57:25.781Z,6.05
2022-08-21T04:00:11.097Z,9.05
2022-08-21T04:02:54.197Z,6.43
2022-08-21T04:05:38.646Z,6.93
2022-08-21T04:08:22.103Z,6.78
2022-08-21T04:11:05.775Z,7.20
2022-08-21T04:13:49.186Z,8.23
2022-08-21T04:16:32.502Z,7.13
2022-08-21T04:19:15.813Z,7.20
2022-08-21T04:22:00.323Z,7.68
2022-08-21T04:24:43.324Z,6.15
2022-08-21T04:27:26.481Z,8.27
2022-08-21T04:30:11.685Z,6.53
2022-08-21T04:32:54.788Z,6.10
2022-08-21T04:35:37.808Z,6.28
2022-08-21T04:38:22.775Z,6.03
2022-08-21T04:41:06.361Z,8.45
2022-08-21T04:43:49.434Z,8.45
2022-08-21T04:46:32.490Z,6.70
2022-08-21T04:49:15.595Z,6.53
2022-08-21T04:51:58.625Z,6.72
2022-08-21T04:54:46.458Z,7.03
2022-08-21T04:57:34.167Z,8.07
2022-08-21T05:00:31.494Z,6.03
2022-08-21T05:03:16.606Z,6.88
2022-08-21T05:06:00.126Z,7.78
2022-08-21T05:08:44.633Z,7.32
2022-08-21T05:11:29.715Z,5.45
2022-08-21T05:14:13.640Z,6.32
2022-08-21T05:16:56.715Z,6.47
2022-08-21T05:19:39.752Z,6.72
2022-08-21T05:22:25.246Z,7.82
2022-08-21T05:25:10.889Z,8.27
2022-08-21T05:27:55.555Z,6.68
2022-08-21T05:30:41.906Z,5.63
2022-08-21T05:33:25.076Z,6.95
2022-08-21T05:36:08.708Z,7.82
2022-08-21T05:38:51.832Z,6.68
2022-08-21T05:41:34.877Z,5.32
2022-08-21T05:44:20.484Z,7.78
2022-08-21T05:47:07.478Z,6.07
2022-08-21T05:49:50.497Z,7.03
2022-08-21T05:52:33.622Z,6.63
2022-08-21T05:55:16.869Z,5.72
2022-08-21T05:58:00.425Z,5.93
2022-08-21T06:00:46.652Z,6.07
2022-08-21T06:03:32.971Z,7.00
2022-08-21T06:06:16.609Z,7.05
2022-08-21T06:08:59.658Z,6.95
2022-08-21T06:11:42.669Z,6.95
2022-08-21T06:14:25.738Z,7.57
2022-08-21T06:17:12.839Z,6.60
2022-08-21T06:19:56.792Z,7.97
2022-08-21T06:22:39.811Z,7.90
2022-08-21T06:25:23.228Z,7.13
2022-08-21T06:28:09.450Z,7.65
2022-08-21T06:30:52.543Z,6.95
2022-08-21T06:33:36.936Z,9.43
2022-08-21T06:36:21.846Z,8.05
2022-08-21T06:39:16.282Z,6.18
2022-08-21T06:42:00.595Z,8.45
2022-08-21T06:44:45.728Z,7.40
2022-08-21T06:47:28.771Z,7.60
2022-08-21T06:50:13.630Z,7.55
2022-08-21T06:53:01.680Z,8.70
2022-08-21T06:55:44.853Z,10.65
2022-08-21T06:58:27.909Z,9.68
2022-08-21T07:01:11.023Z,10.38
2022-08-21T07:03:54.101Z,7.90
2022-08-21T07:06:38.714Z,8.70
2022-08-21T07:09:24.658Z,9.10
2022-08-21T07:12:08.648Z,10.15
2022-08-21T07:14:51.707Z,8.50
2022-08-21T07:17:34.800Z,8.60
2022-08-21T07:20:17.929Z,11.68
2022-08-21T07:23:05.870Z,9.35
2022-08-21T07:25:48.927Z,8.20
2022-08-21T07:28:32.259Z,9.07
2022-08-21T07:31:17.596Z,11.48
2022-08-21T07:34:00.742Z,11.88
2022-08-21T07:36:43.782Z,12.82
2022-08-21T07:39:28.251Z,13.70
2022-08-21T07:42:11.539Z,12.80
2022-08-21T07:44:55.304Z,12.70
2022-08-21T07:47:42.366Z,10.75
2022-08-21T07:50:26.758Z,12.38
2022-08-21T07:53:10.065Z,13.38
2022-08-21T07:55:54.446Z,13.00
2022-08-21T07:58:37.550Z,9.93
2022-08-21T08:01:21.542Z,12.38
2022-08-21T08:04:05.226Z,11.80
2022-08-21T08:06:48.272Z,10.18
2022-08-21T08:09:31.297Z,11.80
2022-08-21T08:12:15.784Z,11.00
2022-08-21T08:14:58.916Z,10.27
2022-08-21T08:17:42.226Z,10.15
2022-08-21T08:20:27.442Z,10.48
2022-08-21T08:23:12.065Z,9.05
2022-08-21T08:25:55.178Z,9.65
2022-08-21T08:28:39.621Z,11.77
2022-08-21T08:31:22.760Z,12.23
2022-08-21T08:34:05.802Z,8.85
2022-08-21T08:36:49.458Z,9.25
2022-08-21T08:39:34.870Z,7.75
2022-08-21T08:42:33.524Z,10.88
2022-08-21T08:45:24.898Z,10.10
2022-08-21T08:48:14.070Z,8.18
2022-08-21T08:50:59.270Z,7.97
2022-08-21T08:56:34.709Z,7.85
2022-08-21T08:59:25.159Z,9.85
2022-08-21T09:02:13.234Z,7.35
2022-08-21T09:04:57.122Z,8.38
2022-08-21T09:07:51.225Z,7.30
2022-08-21T09:10:44.939Z,8.35
2022-08-21T09:13:43.061Z,7.70
2022-08-21T09:16:37.466Z,6.55
2022-08-21T09:19:38.550Z,7.00
2022-08-21T09:22:31.337Z,7.07
2022-08-21T09:25:21.922Z,6.45
2022-08-21T09:28:12.393Z,7.50
2022-08-21T09:30:59.125Z,6.55
2022-08-21T09:33:42.118Z,6.63
2022-08-21T09:36:35.306Z,6.10
2022-08-21T09:39:26.518Z,7.03
2022-08-21T09:42:12.373Z,5.97
2022-08-21T09:45:10.978Z,5.35
2022-08-21T09:47:54.079Z,5.40
2022-08-21T09:50:37.567Z,5.93
2022-08-21T09:53:25.865Z,7.45
2022-08-21T09:56:38.782Z,5.95
2022-08-21T09:59:29.289Z,5.85
2022-08-21T10:02:34.576Z,6.82
2022-08-21T10:05:20.763Z,6.15
2022-08-21T10:08:05.191Z,5.50
2022-08-21T10:10:56.446Z,5.57
2022-08-21T10:13:51.611Z,4.63
2022-08-21T10:19:34.296Z,4.80
2022-08-21T10:22:30.942Z,3.85
2022-08-21T10:25:20.109Z,3.88
2022-08-21T10:28:15.604Z,7.07
2022-08-21T10:31:05.016Z,6.22
2022-08-21T10:33:58.956Z,6.72
2022-08-21T10:36:50.186Z,6.05
2022-08-21T10:39:36.655Z,4.50
2022-08-21T10:42:38.326Z,4.03
2022-08-21T10:45:38.519Z,4.20
2022-08-21T10:48:27.428Z,3.95
2022-08-21T10:51:17.964Z,3.60
2022-08-21T10:54:13.474Z,3.20
2022-08-21T10:57:04.074Z,2.72
2022-08-21T10:59:56.042Z,3.20
2022-08-21T11:02:44.841Z,3.85
2022-08-21T11:05:33.154Z,2.92
2022-08-21T11:08:19.987Z,3.17
2022-08-21T11:11:08.814Z,3.45
2022-08-21T11:13:57.291Z,3.20
2022-08-21T11:16:46.030Z,2.80
2022-08-21T11:19:35.563Z,2.63
2022-08-21T11:22:23.294Z,4.43
2022-08-21T11:25:12.900Z,5.38
2022-08-21T11:28:01.150Z,4.40
2022-08-21T11:30:54.148Z,5.05
2022-08-21T11:33:52.924Z,4.30
2022-08-21T11:36:47.208Z,4.03
2022-08-21T11:39:42.532Z,4.90
2022-08-21T11:45:28.176Z,3.83
2022-08-21T11:48:25.056Z,3.58
2022-08-21T11:51:12.713Z,3.72
2022-08-21T11:54:07.436Z,3.33
2022-08-21T11:56:56.415Z,4.22
2022-08-21T11:59:44.550Z,4.25
2022-08-21T12:02:35.707Z,3.72
2022-08-21T12:05:29.068Z,4.28
2022-08-21T12:08:17.389Z,4.50
2022-08-21T12:11:08.426Z,4.63
2022-08-21T12:13:57.918Z,3.78
2022-08-21T12:16:43.052Z,3.90
2022-08-21T12:19:35.820Z,3.47
2022-08-21T12:22:18.886Z,4.07
2022-08-21T12:25:08.330Z,3.63
2022-08-21T12:27:54.376Z,3.10
2022-08-21T12:30:40.254Z,3.03
2022-08-21T12:33:27.942Z,3.10
2022-08-21T12:36:17.454Z,2.90
2022-08-21T12:39:07.176Z,2.90
2022-08-21T12:41:58.959Z,3.92
2022-08-21T12:44:52.471Z,2.92
2022-08-21T12:47:45.430Z,2.95
2022-08-21T12:50:37.045Z,3.70
2022-08-21T12:53:29.216Z,2.95
2022-08-21T12:56:15.545Z,3.10
2022-08-21T12:59:04.474Z,3.45
2022-08-21T13:01:52.475Z,2.95
2022-08-21T13:04:39.931Z,3.38
2022-08-21T13:07:28.915Z,3.30
2022-08-21T13:10:21.646Z,3.20
2022-08-21T13:13:12.326Z,3.20
2022-08-21T13:16:01.260Z,2.88
2022-08-21T13:18:57.943Z,3.70
2022-08-21T13:21:44.046Z,3.63
2022-08-21T13:24:42.408Z,4.30
2022-08-21T13:27:30.136Z,3.55
2022-08-21T13:30:16.605Z,4.22
2022-08-21T13:33:02.169Z,3.70
2022-08-21T13:35:52.673Z,3.80
2022-08-21T13:38:38.754Z,3.58
2022-08-21T13:41:27.724Z,3.88
2022-08-21T13:44:20.828Z,3.30
2022-08-21T13:47:06.694Z,3.53
2022-08-21T13:49:58.585Z,3.30
2022-08-21T13:52:52.343Z,3.72
2022-08-21T13:55:43.367Z,4.55
2022-08-21T13:58:28.115Z,3.90
2022-08-21T14:01:21.604Z,4.35
2022-08-21T14:04:09.471Z,3.25
2022-08-21T14:06:53.636Z,3.35
2022-08-21T14:09:44.010Z,2.63
2022-08-21T14:12:30.167Z,2.50
2022-08-21T14:15:16.574Z,2.60
2022-08-21T14:18:10.459Z,2.50
2022-08-21T14:21:05.081Z,2.35
2022-08-21T14:23:48.103Z,2.45
2022-08-21T14:26:32.682Z,2.42
2022-08-21T14:29:17.775Z,2.10
2022-08-21T14:32:21.518Z,2.47
2022-08-21T14:35:08.140Z,2.60
2022-08-21T14:37:52.803Z,2.50
2022-08-21T14:40:35.837Z,2.72
2022-08-21T14:43:20.959Z,2.42
2022-08-21T14:46:04.133Z,2.47
2022-08-21T14:48:47.705Z,2.90
2022-08-21T14:51:30.895Z,2.70
2022-08-21T14:54:14.062Z,2.50
2022-08-21T14:56:57.150Z,2.50
2022-08-21T14:59:42.020Z,2.28
2022-08-21T15:02:25.071Z,2.67
2022-08-21T15:05:08.974Z,2.47
2022-08-21T15:07:52.019Z,2.20
2022-08-21T15:10:44.251Z,2.92
2022-08-21T15:13:40.613Z,2.42
2022-08-21T15:16:25.632Z,2.42
2022-08-21T15:19:08.608Z,2.60
2022-08-21T15:21:51.919Z,2.67
2022-08-21T15:24:34.951Z,2.67
2022-08-21T15:27:20.658Z,2.63
2022-08-21T15:30:04.704Z,2.70
2022-08-21T15:32:49.149Z,2.90
2022-08-21T15:35:32.386Z,2.97
2022-08-21T15:38:16.313Z,2.85
2022-08-21T15:40:59.382Z,2.87
2022-08-21T15:43:46.322Z,2.50
2022-08-21T15:46:29.607Z,3.50
2022-08-21T15:49:14.042Z,2.78
2022-08-21T15:51:57.086Z,3.10
2022-08-21T15:54:40.505Z,3.42
2022-08-21T15:57:25.587Z,3.00
2022-08-21T16:00:15.513Z,3.30
2022-08-21T16:03:01.223Z,3.17
2022-08-21T16:05:46.238Z,3.10
2022-08-21T16:08:29.362Z,3.13
2022-08-21T16:11:13.420Z,2.95
2022-08-21T16:13:57.074Z,2.92
2022-08-21T16:16:40.651Z,3.15
2022-08-21T16:19:24.061Z,2.92
2022-08-21T16:22:08.484Z,2.85
2022-08-21T16:24:51.460Z,3.08
2022-08-21T16:27:36.219Z,3.28
2022-08-21T16:30:22.701Z,2.78
2022-08-21T16:33:08.509Z,2.67
2022-08-21T16:35:52.143Z,3.15
2022-08-21T16:38:38.341Z,2.90
2022-08-21T16:41:23.956Z,2.55
2022-08-21T16:44:07.925Z,2.63
2022-08-21T16:46:52.834Z,3.42
2022-08-21T16:49:36.508Z,3.58
2022-08-21T16:52:19.575Z,2.50
2022-08-21T16:55:05.303Z,3.17
2022-08-21T16:57:48.445Z,2.92
2022-08-21T17:00:31.586Z,3.30
2022-08-21T17:03:17.206Z,3.08
2022-08-21T17:06:00.263Z,2.92
2022-08-21T17:08:43.731Z,3.35
2022-08-21T17:11:37.973Z,3.08
2022-08-21T17:14:25.044Z,3.38
2022-08-21T17:17:10.539Z,3.75
2022-08-21T17:19:53.621Z,2.90
2022-08-21T17:22:36.664Z,3.03
2022-08-21T17:25:20.316Z,3.20
2022-08-21T17:28:05.285Z,2.63
2022-08-21T17:30:48.506Z,2.80
2022-08-21T17:33:35.090Z,2.50
2022-08-21T17:36:19.038Z,2.40
2022-08-21T17:39:02.339Z,2.47
2022-08-21T17:41:46.553Z,2.72
2022-08-21T17:44:30.958Z,2.88
2022-08-21T17:47:14.696Z,3.00
2022-08-21T17:49:57.729Z,2.92
2022-08-21T17:52:44.236Z,3.20
2022-08-21T17:55:29.342Z,3.83
2022-08-21T17:58:15.994Z,4.30
2022-08-21T18:01:03.480Z,3.38
2022-08-21T18:03:47.461Z,3.03
2022-08-21T18:06:30.598Z,3.40
2022-08-21T18:09:16.320Z,3.90
2022-08-21T18:12:01.080Z,3.08
2022-08-21T18:17:30.327Z,2.88
2022-08-21T18:20:15.422Z,4.20
2022-08-21T18:22:58.594Z,3.42
2022-08-21T18:25:43.405Z,4.20
2022-08-21T18:31:12.174Z,3.50
2022-08-21T18:33:58.642Z,3.55
2022-08-21T18:36:41.924Z,3.22
2022-08-21T18:39:36.320Z,3.33
2022-08-21T18:42:19.981Z,4.40
2022-08-21T18:45:16.259Z,4.10
2022-08-21T18:47:59.727Z,3.70
2022-08-21T18:50:47.845Z,3.90
2022-08-21T18:53:31.102Z,3.10
2022-08-21T18:59:18.726Z,3.15
2022-08-21T19:02:07.810Z,3.13
2022-08-21T19:04:51.870Z,3.42
2022-08-21T19:07:36.312Z,3.60
2022-08-21T19:10:28.906Z,3.30
2022-08-21T19:13:14.657Z,2.83
2022-08-21T19:16:00.101Z,3.25
2022-08-21T19:18:43.321Z,3.63
2022-08-21T19:21:26.518Z,3.78
2022-08-21T19:27:14.844Z,4.32
2022-08-21T19:29:58.127Z,3.20
2022-08-21T19:32:45.676Z,4.55
2022-08-21T19:35:28.958Z,3.15
2022-08-21T19:38:11.970Z,2.85
2022-08-21T19:40:57.483Z,2.60
2022-08-21T19:43:43.588Z,2.60
2022-08-21T19:46:29.981Z,3.10
2022-08-21T19:49:15.966Z,2.60
2022-08-21T19:51:59.306Z,2.78
2022-08-21T19:54:42.640Z,2.80
2022-08-21T19:57:27.093Z,3.30
2022-08-21T20:00:11.872Z,2.10
2022-08-21T20:05:39.894Z,2.28
2022-08-21T20:08:23.772Z,2.90
2022-08-21T20:11:12.522Z,3.83
2022-08-21T20:13:57.469Z,4.60
2022-08-21T20:16:42.218Z,3.42
2022-08-21T20:19:25.453Z,2.55
2022-08-21T20:22:09.841Z,2.47
2022-08-21T20:24:52.919Z,2.53
2022-08-21T20:27:40.503Z,2.20
2022-08-21T20:30:25.181Z,2.40
2022-08-21T20:33:08.947Z,2.85
2022-08-21T20:35:52.339Z,2.60
2022-08-21T20:38:35.475Z,2.83
2022-08-21T20:41:21.317Z,2.53
2022-08-21T20:44:14.433Z,2.70
2022-08-21T20:46:59.826Z,2.15
2022-08-21T20:49:48.514Z,2.15
2022-08-21T20:52:35.450Z,2.28
2022-08-21T20:55:29.150Z,2.63
2022-08-21T20:58:17.551Z,3.05
2022-08-21T21:01:06.263Z,3.20
2022-08-21T21:03:56.248Z,3.72
2022-08-21T21:06:41.104Z,2.70
2022-08-21T21:09:32.719Z,3.20
2022-08-21T21:12:27.689Z,2.63
2022-08-21T21:15:16.011Z,2.58
2022-08-21T21:18:15.933Z,2.17
2022-08-21T21:21:07.836Z,2.35
2022-08-21T21:23:55.394Z,2.33
2022-08-21T21:26:48.684Z,2.55
2022-08-21T21:29:39.690Z,2.58
2022-08-21T21:32:24.656Z,2.67
2022-08-21T21:35:09.632Z,2.28
2022-08-21T21:38:00.170Z,2.60
2022-08-21T21:40:55.765Z,2.60
2022-08-21T21:43:58.626Z,2.83
2022-08-21T21:46:53.331Z,2.50
2022-08-21T21:49:56.576Z,2.85
2022-08-21T21:52:59.484Z,2.20
2022-08-21T21:56:01.119Z,2.10
2022-08-21T21:59:06.347Z,2.25
2022-08-21T22:01:59.269Z,2.47
2022-08-21T22:04:52.881Z,2.42
2022-08-21T22:07:41.706Z,2.15
2022-08-21T22:10:32.482Z,2.50
2022-08-21T22:13:30.951Z,2.17
2022-08-21T22:16:16.749Z,2.70
2022-08-21T22:19:13.713Z,2.67
2022-08-21T22:22:04.710Z,2.78
2022-08-21T22:24:53.475Z,2.42
2022-08-21T22:27:41.185Z,3.13
2022-08-21T22:30:40.259Z,2.22
2022-08-21T22:33:25.570Z,2.70
2022-08-21T22:36:17.797Z,2.38
2022-08-21T22:39:02.134Z,2.53
2022-08-21T22:41:48.953Z,3.03
2022-08-21T22:44:34.963Z,2.70
2022-08-21T22:47:23.196Z,3.15
2022-08-21T22:50:16.949Z,3.00
2022-08-21T22:53:03.766Z,2.25
2022-08-21T22:55:57.504Z,2.70
2022-08-21T22:58:55.533Z,2.20
2022-08-21T23:01:45.469Z,2.40
2022-08-21T23:04:29.411Z,1.95
2022-08-21T23:07:12.596Z,2.50
2022-08-21T23:09:56.712Z,2.13
2022-08-21T23:12:43.831Z,2.00
2022-08-21T23:15:37.314Z,1.70
2022-08-21T23:18:33.621Z,1.85
2022-08-21T23:21:24.052Z,1.75
2022-08-21T23:24:22.937Z,1.55
2022-08-21T23:27:18.433Z,1.80
2022-08-21T23:33:34.305Z,1.50
2022-08-21T23:36:52.425Z,1.58
2022-08-21T23:39:51.700Z,1.50
2022-08-21T23:42:50.823Z,1.55
2022-08-21T23:45:48.922Z,1.50
2022-08-21T23:48:44.849Z,1.40
2022-08-21T23:54:24.277Z,1.50
